Hauptseite
METAR-TAF:

METAR-TAF

Flughäfen :

Hohenfels, Deutschland

Breite: 49-13N, Länge: 011-50E, Höhe: 442 m

Beobachtung

Neuester Wetterbericht von vor 51 Minuten, um 04:28 UTC
Windstille
Temperatur 10°C
Luftfeuchtigkeit 100%
Luftdruck 1018 hPa
Sichtweite 10 km oder mehr
Durchbrochene Bewölkung in der Höhe von 2700 ft
Durchbrochene Bewölkung in der Höhe von 3800 ft
Geschlossene Wolkendecke in der Höhe von 4500 ft
Leichtregen

METAR: ETIH 230428Z AUTO 00000KT 9999 -RA BKN027 BKN038 OVC045 10/10 A3006 RMK AO2 RAE0358DZB0358E0359RAB0359 CIG 027V038 SLP179 $

Zeit: 07:19 (05:19 UTC)


TAF: fehlend

Wetterbeobachtungen und Prognosen von mehr als 4000 Flughäfen (METAR und TAF Bericht).

Die verfügbaren Stationen werden durch gelbe und rote Markierungen auf der Karte dargestellt.

Führen Sie die Maus auf sie, um den Namen der Station zu sehen.

Darauf klicken, um die Beobachtung von Wetterbeobachtungen und Prognosen zu sehen.

Um die Karte zu ändern : klicken Sie auf den grünen Tasten mit einem schwarzen Kreuz Zum Vergrößern, auf den grünen Button mit einem Gedankenstrich zu verkleinern, oder auf die grünen Pfeile für benachbarte Karten.


METAR-TAF: